Time;durP1;ratioP1;P1;durP2;ratioP2;P2;SDS_P1;SDS_P2;PMS_P1;PMS_P2;Temp;Humidity;BMP_temperature;BMP_pressure;BME280_temperature;BME280_humidity;BME280_pressure;Samples;Min_cycle;Max_cycle;Signal;HPM_P1;HPM_P2
2021/12/26 00:01:45;;;;;;;21.27;11.35;;;2.90;53.60;;;;;;5071386;28;20085;-60
2021/12/26 00:04:13;;;;;;;22.60;11.30;;;2.80;51.90;;;;;;5066378;28;20370;-61
2021/12/26 00:06:40;;;;;;;22.67;11.27;;;2.90;52.60;;;;;;5070516;28;20041;-60
2021/12/26 00:09:06;;;;;;;20.52;11.48;;;2.90;51.90;;;;;;5068226;28;20032;-62
2021/12/26 00:11:31;;;;;;;21.83;11.02;;;2.90;51.80;;;;;;5071820;28;20044;-63
2021/12/26 00:13:57;;;;;;;23.55;11.52;;;3.00;52.00;;;;;;5065080;28;20378;-63
2021/12/26 00:16:24;;;;;;;23.38;11.73;;;3.00;51.80;;;;;;5070934;28;20024;-66
2021/12/26 00:18:51;;;;;;;22.92;11.70;;;3.00;50.60;;;;;;5071047;28;20048;-66
2021/12/26 00:21:20;;;;;;;20.83;10.48;;;2.90;51.20;;;;;;5072225;28;20024;-64
2021/12/26 00:23:47;;;;;;;23.02;11.70;;;2.80;50.80;;;;;;5069143;28;20024;-66
2021/12/26 00:26:13;;;;;;;20.80;10.85;;;2.70;51.70;;;;;;5070879;28;20063;-66
2021/12/26 00:28:39;;;;;;;22.83;12.07;;;2.60;50.50;;;;;;5070381;28;20021;-64
2021/12/26 00:31:05;;;;;;;21.52;10.82;;;2.60;50.90;;;;;;5071185;28;20445;-64
2021/12/26 00:33:32;;;;;;;24.85;11.63;;;2.60;51.30;;;;;;5071494;28;20059;-69
2021/12/26 00:35:59;;;;;;;25.27;10.85;;;2.60;50.80;;;;;;5074732;28;20099;-62
2021/12/26 00:38:25;;;;;;;22.17;11.10;;;2.60;50.90;;;;;;5077985;28;20020;-69
2021/12/26 00:40:51;;;;;;;22.95;11.05;;;2.70;51.30;;;;;;5070259;28;20039;-67
2021/12/26 00:43:17;;;;;;;21.42;10.85;;;2.70;50.30;;;;;;5071948;28;20029;-65
2021/12/26 00:45:43;;;;;;;20.35;11.07;;;2.70;50.60;;;;;;5069826;28;20031;-70
2021/12/26 00:48:09;;;;;;;21.42;11.30;;;2.60;50.50;;;;;;5070442;28;20016;-70
2021/12/26 00:50:37;;;;;;;21.55;11.10;;;2.60;51.00;;;;;;5070073;28;20350;-64
2021/12/26 00:53:03;;;;;;;25.70;11.65;;;2.60;50.80;;;;;;5070523;28;20024;-69
2021/12/26 00:55:29;;;;;;;21.88;11.65;;;2.60;51.30;;;;;;5071219;28;20065;-67
2021/12/26 00:57:55;;;;;;;22.38;11.57;;;2.50;50.20;;;;;;5069483;28;20024;-67
2021/12/26 01:00:25;;;;;;;22.67;10.90;;;2.50;51.10;;;;;;5068027;28;20024;-68
2021/12/26 01:02:51;;;;;;;22.10;11.07;;;2.60;51.00;;;;;;5066891;28;20142;-65
2021/12/26 01:05:19;;;;;;;19.67;10.30;;;2.60;50.60;;;;;;5071559;28;20047;-67
2021/12/26 01:10:11;;;;;;;28.52;11.68;;;2.60;51.00;;;;;;5068994;28;20153;-67
2021/12/26 01:12:38;;;;;;;21.20;10.90;;;2.70;51.10;;;;;;5067193;28;20025;-63
2021/12/26 01:15:09;;;;;;;23.05;11.95;;;2.80;50.60;;;;;;5070546;28;20020;-64
2021/12/26 01:17:36;;;;;;;22.63;10.90;;;2.70;50.10;;;;;;5069635;28;20063;-65
2021/12/26 01:20:06;;;;;;;20.13;10.80;;;2.70;50.30;;;;;;5070236;28;20017;-63
2021/12/26 01:22:32;;;;;;;22.67;11.50;;;2.70;50.50;;;;;;5069204;28;20039;-62
2021/12/26 01:24:59;;;;;;;22.33;11.48;;;2.70;50.50;;;;;;5067162;28;20032;-65
2021/12/26 01:27:26;;;;;;;26.55;11.05;;;2.80;50.10;;;;;;5072416;28;20024;-67
2021/12/26 01:29:53;;;;;;;24.17;12.05;;;2.80;50.20;;;;;;5068652;28;20020;-67
2021/12/26 01:32:20;;;;;;;25.13;11.63;;;2.80;50.00;;;;;;5067680;28;20033;-66
2021/12/26 01:34:46;;;;;;;24.63;11.38;;;2.90;50.30;;;;;;5068771;28;20054;-67
2021/12/26 01:37:12;;;;;;;20.88;11.23;;;2.90;49.90;;;;;;5068676;28;21625;-66
2021/12/26 01:39:38;;;;;;;22.30;10.57;;;2.80;49.60;;;;;;5070205;28;20095;-67
2021/12/26 01:42:08;;;;;;;20.95;11.10;;;2.80;49.20;;;;;;5080849;28;20035;-66
2021/12/26 01:44:34;;;;;;;22.67;11.25;;;2.90;50.10;;;;;;5070385;28;20032;-67
2021/12/26 01:47:01;;;;;;;21.50;10.88;;;2.90;50.00;;;;;;5072515;28;20369;-67
2021/12/26 01:49:30;;;;;;;22.75;11.95;;;2.90;49.80;;;;;;5070964;28;20081;-67
2021/12/26 01:51:59;;;;;;;20.48;11.20;;;2.90;49.70;;;;;;5072179;28;20020;-66
2021/12/26 01:55:00;;;;;;;20.35;11.35;;;2.80;49.30;;;;;;5061077;28;20020;-66
2021/12/26 01:57:32;;;;;;;23.50;11.23;;;2.60;48.40;;;;;;5059974;28;20025;-66
2021/12/26 01:59:59;;;;;;;18.02;9.85;;;2.70;49.30;;;;;;5068270;28;20028;-67
2021/12/26 02:02:26;;;;;;;22.08;11.07;;;2.70;49.20;;;;;;5070163;28;20058;-67
2021/12/26 02:04:52;;;;;;;20.80;11.23;;;2.70;48.60;;;;;;5070382;28;20120;-67
2021/12/26 02:07:18;;;;;;;22.08;10.57;;;2.60;49.10;;;;;;5071941;28;20118;-67
2021/12/26 02:09:44;;;;;;;23.77;11.15;;;2.60;49.40;;;;;;5069763;28;20026;-66
2021/12/26 02:12:10;;;;;;;21.08;11.13;;;2.60;49.60;;;;;;5065834;28;20097;-67
2021/12/26 02:14:36;;;;;;;23.60;11.27;;;2.60;49.80;;;;;;5071880;28;20033;-67
2021/12/26 02:17:02;;;;;;;20.83;10.68;;;2.60;50.10;;;;;;5070598;28;20137;-66
2021/12/26 02:19:28;;;;;;;22.70;10.30;;;2.60;50.10;;;;;;5071330;28;20465;-66
2021/12/26 02:22:03;;;;;;;22.88;10.88;;;2.70;49.80;;;;;;5072257;28;20043;-68
2021/12/26 02:25:06;;;;;;;23.40;11.15;;;2.70;49.50;;;;;;5071392;28;20465;-65
2021/12/26 02:27:32;;;;;;;17.70;9.50;;;2.70;49.10;;;;;;5071929;28;20056;-67
2021/12/26 02:29:59;;;;;;;;;;;2.50;49.30;;;;;;5071599;28;20070;-67
2021/12/26 02:32:25;;;;;;;27.17;11.23;;;2.50;48.50;;;;;;5075443;28;19910;-66
2021/12/26 02:34:51;;;;;;;23.17;10.55;;;2.50;48.90;;;;;;5070589;28;20477;-65
2021/12/26 02:37:16;;;;;;;22.95;10.27;;;2.40;49.20;;;;;;5070480;28;20016;-66
2021/12/26 02:39:42;;;;;;;23.75;11.30;;;2.50;49.40;;;;;;5067005;28;20074;-66
2021/12/26 02:42:08;;;;;;;24.08;10.32;;;2.50;49.10;;;;;;5070923;28;20031;-65
2021/12/26 02:44:34;;;;;;;22.98;9.68;;;2.50;49.20;;;;;;5069090;28;20096;-66
2021/12/26 02:46:59;;;;;;;19.90;10.13;;;2.60;49.60;;;;;;5067873;28;20393;-66
2021/12/26 02:49:26;;;;;;;20.80;10.75;;;2.50;49.40;;;;;;5072963;28;20028;-67
2021/12/26 02:51:52;;;;;;;23.58;10.23;;;2.60;49.50;;;;;;5070784;28;20028;-66
2021/12/26 02:54:18;;;;;;;18.65;10.23;;;2.70;48.70;;;;;;5069468;28;20055;-68
2021/12/26 02:56:44;;;;;;;21.88;10.98;;;2.60;48.80;;;;;;5065735;28;20098;-66
2021/12/26 02:59:10;;;;;;;23.40;11.10;;;2.50;48.90;;;;;;5069639;28;20479;-65
2021/12/26 03:01:36;;;;;;;19.85;10.15;;;2.50;49.10;;;;;;5068625;28;20127;-66
2021/12/26 03:04:05;;;;;;;19.88;11.25;;;2.50;49.50;;;;;;5070045;28;20392;-66
2021/12/26 03:07:31;;;;;;;18.20;9.93;;;2.60;49.70;;;;;;5064139;28;20123;-66
2021/12/26 03:09:28;;;;;;;19.48;10.52;;;2.60;49.30;;;;;;5057062;28;20037;-65
2021/12/26 03:11:54;;;;;;;19.92;9.82;;;2.60;49.20;;;;;;5063740;28;20044;-65
2021/12/26 03:14:19;;;;;;;19.40;10.45;;;2.60;49.20;;;;;;5067858;28;20025;-66
2021/12/26 03:16:50;;;;;;;21.15;10.23;;;2.70;49.40;;;;;;5068566;28;20082;-65
2021/12/26 03:19:16;;;;;;;19.15;9.40;;;2.70;49.00;;;;;;5065388;28;20027;-66
2021/12/26 03:21:42;;;;;;;19.10;9.80;;;2.60;49.40;;;;;;5066157;28;20048;-66
2021/12/26 03:24:08;;;;;;;20.15;10.02;;;2.60;49.30;;;;;;5060643;28;20036;-67
2021/12/26 03:26:34;;;;;;;21.20;10.20;;;2.60;49.10;;;;;;5084542;28;20017;-67
2021/12/26 03:29:00;;;;;;;20.98;10.10;;;2.60;48.80;;;;;;5067956;28;20365;-67
2021/12/26 03:31:25;;;;;;;20.13;9.38;;;2.60;49.20;;;;;;5064614;28;20454;-65
2021/12/26 03:33:51;;;;;;;20.23;9.82;;;2.50;49.10;;;;;;5054186;28;20048;-65
2021/12/26 03:36:17;;;;;;;23.13;10.27;;;2.50;49.30;;;;;;5068247;28;20481;-67
2021/12/26 03:38:43;;;;;;;20.85;10.45;;;2.50;49.30;;;;;;5067771;28;20042;-67
2021/12/26 03:41:09;;;;;;;20.40;9.98;;;2.60;49.30;;;;;;5072616;28;20364;-68
2021/12/26 03:43:34;;;;;;;23.65;10.68;;;2.70;49.10;;;;;;5064055;28;20040;-66
2021/12/26 03:46:00;;;;;;;19.13;10.00;;;2.70;48.70;;;;;;5065447;28;20031;-66
2021/12/26 03:48:27;;;;;;;19.45;9.85;;;2.60;48.80;;;;;;5068187;28;20029;-67
2021/12/26 03:50:54;;;;;;;19.55;9.88;;;2.60;48.40;;;;;;5067968;28;20029;-66
2021/12/26 03:53:20;;;;;;;22.67;10.32;;;2.50;48.30;;;;;;5064461;28;20070;-67
2021/12/26 03:55:47;;;;;;;19.95;9.50;;;2.50;48.90;;;;;;5067060;28;20024;-66
2021/12/26 03:58:14;;;;;;;17.45;9.38;;;2.60;49.10;;;;;;5079861;28;20033;-67
2021/12/26 04:00:41;;;;;;;19.98;10.38;;;2.60;48.70;;;;;;5062709;28;20044;-65
2021/12/26 04:03:07;;;;;;;20.67;9.70;;;2.50;48.60;;;;;;5065193;28;20032;-66
2021/12/26 04:05:34;;;;;;;23.75;10.45;;;2.50;48.10;;;;;;5067404;28;20039;-65
2021/12/26 04:08:00;;;;;;;23.05;11.35;;;2.30;47.60;;;;;;5066726;28;20153;-65
2021/12/26 04:10:26;;;;;;;23.92;10.25;;;2.40;48.10;;;;;;5067358;28;20040;-66
2021/12/26 04:12:53;;;;;;;24.33;11.25;;;2.30;48.00;;;;;;5068264;28;20502;-66
2021/12/26 04:15:22;;;;;;;22.27;10.52;;;2.40;49.00;;;;;;5064453;28;20074;-67
2021/12/26 04:17:49;;;;;;;22.15;10.38;;;2.30;48.40;;;;;;5066273;28;20029;-66
2021/12/26 04:20:15;;;;;;;20.38;9.77;;;2.40;48.40;;;;;;5068237;28;20170;-67
2021/12/26 04:22:41;;;;;;;18.30;9.82;;;2.30;48.40;;;;;;5067514;28;20041;-66
2021/12/26 04:25:08;;;;;;;23.13;10.63;;;2.20;48.70;;;;;;5068196;28;20105;-66
2021/12/26 04:27:34;;;;;;;24.00;11.35;;;2.20;48.80;;;;;;5066097;28;20123;-65
2021/12/26 04:30:00;;;;;;;20.48;10.63;;;2.20;48.90;;;;;;5072568;28;20406;-66
2021/12/26 04:32:26;;;;;;;23.08;10.68;;;2.20;48.80;;;;;;5068450;28;20074;-66
2021/12/26 04:34:52;;;;;;;25.08;10.68;;;2.20;49.00;;;;;;5068541;28;20089;-67
2021/12/26 04:37:17;;;;;;;21.55;9.70;;;2.10;49.00;;;;;;5071225;28;20134;-67
2021/12/26 04:39:43;;;;;;;20.00;9.13;;;2.10;49.20;;;;;;5069110;28;20468;-65
2021/12/26 04:42:09;;;;;;;19.42;9.85;;;2.10;49.00;;;;;;5072748;28;20028;-67
2021/12/26 04:44:35;;;;;;;19.52;9.60;;;2.10;49.10;;;;;;5070500;28;20052;-66
2021/12/26 04:47:01;;;;;;;15.73;8.98;;;2.00;49.00;;;;;;5069893;28;20406;-67
2021/12/26 04:49:27;;;;;;;19.52;8.98;;;1.90;49.40;;;;;;5071509;28;20471;-66
2021/12/26 04:51:52;;;;;;;19.08;9.57;;;1.90;49.70;;;;;;5070022;28;20055;-68
2021/12/26 04:54:18;;;;;;;18.42;9.68;;;2.00;50.00;;;;;;5070898;28;20039;-67
2021/12/26 04:56:44;;;;;;;23.63;10.20;;;2.00;49.80;;;;;;5070357;28;20032;-67
2021/12/26 04:59:09;;;;;;;19.95;9.10;;;1.90;49.60;;;;;;5070766;28;20484;-68
2021/12/26 05:01:35;;;;;;;19.77;9.68;;;1.80;49.80;;;;;;5070996;28;20400;-66
2021/12/26 05:04:01;;;;;;;19.55;9.07;;;1.80;49.70;;;;;;5074072;28;20451;-68
2021/12/26 05:06:27;;;;;;;20.20;9.15;;;1.90;49.50;;;;;;5079506;28;20115;-65
2021/12/26 05:08:53;;;;;;;21.77;10.00;;;1.80;49.50;;;;;;5074263;28;20072;-66
2021/12/26 05:11:19;;;;;;;19.63;9.80;;;1.80;49.60;;;;;;5072185;28;20141;-66
2021/12/26 05:13:45;;;;;;;21.45;9.77;;;1.70;49.40;;;;;;5075718;28;20021;-65
2021/12/26 05:16:11;;;;;;;21.02;9.43;;;1.70;49.30;;;;;;5073222;28;20040;-66
2021/12/26 05:18:37;;;;;;;20.27;9.05;;;1.60;49.50;;;;;;5068671;28;20467;-64
2021/12/26 05:21:03;;;;;;;20.83;9.38;;;1.60;49.50;;;;;;5066624;28;20055;-66
2021/12/26 05:23:29;;;;;;;21.52;9.18;;;1.40;49.40;;;;;;5070381;28;20036;-64
2021/12/26 05:25:54;;;;;;;20.08;9.15;;;1.40;49.50;;;;;;5065255;28;20036;-65
2021/12/26 05:28:20;;;;;;;21.55;9.55;;;1.40;49.60;;;;;;5076668;28;20387;-66
2021/12/26 05:30:46;;;;;;;20.10;9.23;;;1.50;49.80;;;;;;5083638;28;20032;-65
2021/12/26 05:33:12;;;;;;;19.67;9.63;;;1.40;49.70;;;;;;5076898;28;20484;-66
2021/12/26 05:35:38;;;;;;;22.58;9.95;;;1.40;49.80;;;;;;5078765;28;20044;-66
2021/12/26 05:38:04;;;;;;;20.88;10.05;;;1.50;49.80;;;;;;5080670;28;20023;-66
2021/12/26 05:40:30;;;;;;;19.38;8.90;;;1.50;49.60;;;;;;5061376;28;20451;-65
2021/12/26 05:42:56;;;;;;;20.70;9.95;;;1.50;49.80;;;;;;5079102;28;20132;-67
2021/12/26 05:45:22;;;;;;;23.27;10.15;;;1.50;49.50;;;;;;5081185;28;20484;-67
2021/12/26 05:47:47;;;;;;;20.55;10.20;;;1.50;49.20;;;;;;5069974;28;20028;-67
2021/12/26 05:50:17;;;;;;;24.17;10.77;;;1.50;49.10;;;;;;5070646;28;20096;-66
2021/12/26 05:52:43;;;;;;;25.10;10.80;;;1.50;49.50;;;;;;5066957;28;20098;-65
2021/12/26 05:55:09;;;;;;;24.55;10.32;;;1.50;49.10;;;;;;5069202;28;20031;-66
2021/12/26 05:57:35;;;;;;;23.30;10.55;;;1.60;49.10;;;;;;5067461;28;20024;-65
2021/12/26 06:00:05;;;;;;;22.42;11.32;;;1.60;49.30;;;;;;5070163;28;20100;-65
2021/12/26 06:02:31;;;;;;;25.75;11.35;;;1.60;49.10;;;;;;5069366;28;20041;-65
2021/12/26 06:04:57;;;;;;;28.75;11.38;;;1.60;49.20;;;;;;5067681;28;20103;-65
2021/12/26 06:07:23;;;;;;;23.50;11.23;;;1.60;49.00;;;;;;5071688;28;20035;-66
2021/12/26 06:09:49;;;;;;;27.25;11.63;;;1.60;49.10;;;;;;5071427;28;20082;-66
2021/12/26 06:12:16;;;;;;;25.67;11.80;;;1.50;48.70;;;;;;5067963;28;20067;-66
2021/12/26 06:14:42;;;;;;;27.88;12.13;;;1.30;49.10;;;;;;5068323;28;20037;-65
2021/12/26 06:17:09;;;;;;;23.33;11.68;;;1.20;49.30;;;;;;5068666;28;20063;-65
2021/12/26 06:19:35;;;;;;;27.83;11.65;;;1.20;49.60;;;;;;5069828;28;20033;-65
2021/12/26 06:22:02;;;;;;;21.23;10.73;;;1.10;49.50;;;;;;5069252;28;20085;-65
2021/12/26 06:24:32;;;;;;;22.88;11.15;;;1.00;49.80;;;;;;5069437;28;20020;-65
2021/12/26 06:26:58;;;;;;;29.08;11.77;;;1.00;50.40;;;;;;5066893;28;20052;-65
2021/12/26 06:29:24;;;;;;;25.95;11.85;;;1.10;50.20;;;;;;5071233;28;20025;-68
2021/12/26 06:31:49;;;;;;;23.65;12.15;;;1.10;50.10;;;;;;5068834;28;20035;-66
2021/12/26 06:34:15;;;;;;;22.33;11.48;;;1.00;50.20;;;;;;5069782;28;20029;-66
2021/12/26 06:36:41;;;;;;;24.88;11.30;;;0.90;50.30;;;;;;5068987;28;20032;-67
2021/12/26 06:39:07;;;;;;;29.48;13.13;;;0.90;50.70;;;;;;5069628;28;20405;-65
2021/12/26 06:41:33;;;;;;;25.67;12.07;;;1.00;50.40;;;;;;5067602;28;20040;-65
2021/12/26 06:44:00;;;;;;;24.30;11.50;;;0.90;50.20;;;;;;5068087;28;20029;-66
2021/12/26 06:46:26;;;;;;;28.75;11.15;;;0.90;50.70;;;;;;5057494;28;20047;-65
2021/12/26 06:48:52;;;;;;;31.77;12.82;;;0.90;50.60;;;;;;5067354;28;20060;-65
2021/12/26 06:51:19;;;;;;;29.02;13.30;;;1.00;51.00;;;;;;5069652;28;20085;-65
2021/12/26 06:53:45;;;;;;;24.38;11.82;;;1.00;50.80;;;;;;5068870;28;20024;-65
2021/12/26 06:56:11;;;;;;;29.23;13.13;;;0.90;51.00;;;;;;5066652;28;20028;-66
2021/12/26 06:58:36;;;;;;;27.52;12.27;;;1.00;51.20;;;;;;5066413;28;20033;-66
2021/12/26 07:01:03;;;;;;;24.73;12.20;;;1.00;51.00;;;;;;5070783;28;20041;-67
2021/12/26 07:03:28;;;;;;;27.23;13.07;;;0.90;51.10;;;;;;5069115;28;20028;-67
2021/12/26 07:05:54;;;;;;;27.45;12.55;;;0.90;51.20;;;;;;5068994;28;20035;-68
2021/12/26 07:08:20;;;;;;;32.03;14.10;;;0.90;51.20;;;;;;5069462;28;20029;-66
2021/12/26 07:10:46;;;;;;;29.15;13.77;;;1.00;51.10;;;;;;5058447;28;20044;-67
2021/12/26 07:13:12;;;;;;;28.08;12.70;;;1.00;51.20;;;;;;5065137;28;20024;-67
2021/12/26 07:15:38;;;;;;;24.90;12.65;;;1.10;51.40;;;;;;5060688;28;20039;-66
2021/12/26 07:18:04;;;;;;;26.30;12.98;;;1.10;50.80;;;;;;5066902;28;20566;-65
2021/12/26 07:20:31;;;;;;;27.42;13.73;;;1.10;51.20;;;;;;5062440;28;20037;-65
2021/12/26 07:22:57;;;;;;;28.65;12.88;;;1.10;51.00;;;;;;5065943;28;20040;-67
2021/12/26 07:25:23;;;;;;;27.13;12.43;;;1.00;51.10;;;;;;5065494;28;20028;-63
2021/12/26 07:27:48;;;;;;;31.30;13.88;;;1.10;51.30;;;;;;5068133;28;20037;-62
2021/12/26 07:30:14;;;;;;;26.50;13.13;;;1.10;51.30;;;;;;5065597;28;20030;-62
2021/12/26 07:32:40;;;;;;;29.40;13.23;;;1.20;51.00;;;;;;5065348;28;20078;-63
2021/12/26 07:35:06;;;;;;;28.77;13.27;;;1.20;51.10;;;;;;5060908;28;20414;-62
2021/12/26 07:37:32;;;;;;;31.15;13.20;;;1.30;50.60;;;;;;5062999;28;20024;-64
2021/12/26 07:39:58;;;;;;;30.90;13.50;;;1.20;50.60;;;;;;5063750;28;20035;-65
2021/12/26 07:42:24;;;;;;;28.45;13.02;;;1.20;50.80;;;;;;5061750;28;20032;-65
2021/12/26 07:44:50;;;;;;;26.67;13.20;;;1.30;50.80;;;;;;5064140;28;20480;-64
2021/12/26 07:47:15;;;;;;;32.53;13.55;;;1.40;50.90;;;;;;5056324;28;20029;-64
2021/12/26 07:49:41;;;;;;;26.58;12.25;;;1.40;50.80;;;;;;5072371;28;20469;-63
2021/12/26 07:52:22;;;;;;;28.35;13.05;;;1.40;50.60;;;;;;5067919;28;21361;-65
2021/12/26 07:54:48;;;;;;;30.35;13.52;;;1.50;51.00;;;;;;5064159;28;20059;-65
2021/12/26 07:57:14;;;;;;;32.17;14.75;;;1.50;50.50;;;;;;5067251;28;20068;-64
2021/12/26 07:59:40;;;;;;;30.55;13.65;;;1.50;50.90;;;;;;5067064;28;20024;-65
2021/12/26 08:02:06;;;;;;;32.67;15.20;;;1.70;51.00;;;;;;5065801;28;20102;-64
2021/12/26 08:04:33;;;;;;;32.50;13.60;;;1.80;50.60;;;;;;5077963;28;20025;-64
2021/12/26 08:07:00;;;;;;;38.47;14.57;;;1.70;50.70;;;;;;5071647;28;20477;-65
2021/12/26 08:09:26;;;;;;;33.80;15.18;;;1.80;51.10;;;;;;5068358;28;20031;-65
2021/12/26 08:11:52;;;;;;;30.25;14.05;;;1.90;50.40;;;;;;5069626;28;20493;-65
2021/12/26 08:14:18;;;;;;;30.63;14.73;;;1.80;50.40;;;;;;5073796;28;21387;-64
2021/12/26 08:16:44;;;;;;;31.55;14.70;;;2.00;50.40;;;;;;5081166;28;20096;-64
2021/12/26 08:19:10;;;;;;;36.20;15.85;;;2.10;50.20;;;;;;5066585;28;20123;-64
2021/12/26 08:21:36;;;;;;;30.67;15.43;;;2.10;50.10;;;;;;5061331;28;20119;-64
2021/12/26 08:24:03;;;;;;;30.30;15.57;;;2.20;50.10;;;;;;5079027;28;20041;-64
2021/12/26 08:26:32;;;;;;;34.95;15.50;;;2.30;50.20;;;;;;5079536;28;20141;-65
2021/12/26 08:28:58;;;;;;;37.38;17.02;;;2.20;49.40;;;;;;5082455;28;20040;-64
2021/12/26 08:31:24;;;;;;;29.92;15.55;;;2.30;49.50;;;;;;5075257;28;20404;-65
2021/12/26 08:33:49;;;;;;;35.80;16.63;;;2.20;49.60;;;;;;5077289;28;20044;-65
2021/12/26 08:36:18;;;;;;;37.72;17.33;;;2.30;49.90;;;;;;5074410;28;20028;-64
2021/12/26 08:38:44;;;;;;;38.20;17.05;;;2.30;49.50;;;;;;5081399;28;20363;-64
2021/12/26 08:41:10;;;;;;;38.42;17.50;;;2.20;49.00;;;;;;5079854;28;20032;-65
2021/12/26 08:43:36;;;;;;;41.97;17.27;;;2.10;49.30;;;;;;5070670;28;20115;-64
2021/12/26 08:46:02;;;;;;;39.03;16.80;;;2.10;49.60;;;;;;5078652;28;20032;-64
2021/12/26 08:48:28;;;;;;;42.38;18.05;;;2.10;49.40;;;;;;5078531;28;20131;-65
2021/12/26 08:50:55;;;;;;;40.22;17.35;;;2.10;49.80;;;;;;5071836;28;20069;-65
2021/12/26 08:53:28;;;;;;;36.20;17.40;;;2.20;49.70;;;;;;5070166;28;20048;-64
2021/12/26 08:55:57;;;;;;;42.40;17.08;;;2.30;49.40;;;;;;5074889;28;20035;-65
2021/12/26 08:58:23;;;;;;;35.30;16.98;;;2.40;49.40;;;;;;5069990;28;20037;-65
2021/12/26 09:00:49;;;;;;;38.90;17.45;;;2.30;49.10;;;;;;5079731;28;20035;-64
2021/12/26 09:03:37;;;;;;;39.33;17.45;;;2.30;49.60;;;;;;5071719;28;20531;-63
2021/12/26 09:06:03;;;;;;;35.97;17.33;;;2.40;49.50;;;;;;5075585;28;20033;-67
2021/12/26 09:08:29;;;;;;;37.88;17.45;;;2.40;49.40;;;;;;5077481;28;20472;-63
2021/12/26 09:10:55;;;;;;;35.10;17.20;;;2.40;49.10;;;;;;5076272;28;20048;-65
2021/12/26 09:13:20;;;;;;;31.77;15.98;;;2.40;49.40;;;;;;5070747;28;20081;-64
2021/12/26 09:15:46;;;;;;;73.13;34.28;;;2.50;49.40;;;;;;5078185;28;20045;-64
2021/12/26 09:18:12;;;;;;;59.60;27.60;;;2.40;48.80;;;;;;5074666;28;20032;-65
2021/12/26 09:20:38;;;;;;;38.55;18.35;;;2.50;49.40;;;;;;5069100;28;20044;-65
2021/12/26 09:23:04;;;;;;;48.92;23.05;;;2.50;48.90;;;;;;5070046;28;20108;-64
2021/12/26 09:25:30;;;;;;;38.30;17.95;;;2.60;49.20;;;;;;5070761;28;20089;-65
2021/12/26 09:27:56;;;;;;;34.83;16.80;;;2.70;48.90;;;;;;5066236;28;20185;-65
2021/12/26 09:30:22;;;;;;;37.38;16.83;;;2.70;48.90;;;;;;5072057;28;20373;-65
2021/12/26 09:32:49;;;;;;;40.10;18.35;;;2.60;49.00;;;;;;5071688;28;20024;-65
2021/12/26 09:35:15;;;;;;;36.60;17.52;;;2.60;49.10;;;;;;5071229;28;20032;-66
2021/12/26 09:37:43;;;;;;;38.30;17.67;;;2.60;48.90;;;;;;5065593;28;20330;-64
2021/12/26 09:40:10;;;;;;;37.85;17.73;;;2.70;49.20;;;;;;5069923;28;20036;-61
2021/12/26 09:42:37;;;;;;;42.55;19.58;;;2.80;48.80;;;;;;5069691;28;20137;-60
2021/12/26 09:45:05;;;;;;;41.08;18.92;;;2.70;48.90;;;;;;5071846;28;20369;-61
2021/12/26 09:47:31;;;;;;;66.85;32.08;;;2.70;49.30;;;;;;5063816;28;20036;-61
2021/12/26 09:49:56;;;;;;;48.38;21.48;;;2.70;48.80;;;;;;5069911;28;20230;-61
2021/12/26 09:52:22;;;;;;;43.45;22.48;;;2.60;49.20;;;;;;5070106;28;20033;-61
2021/12/26 09:54:48;;;;;;;40.92;20.10;;;2.80;49.50;;;;;;5069322;28;20497;-63
2021/12/26 09:57:14;;;;;;;46.53;21.67;;;2.80;49.00;;;;;;5070124;28;20028;-64
2021/12/26 09:59:40;;;;;;;47.05;20.40;;;2.80;49.30;;;;;;5067762;28;20021;-66
2021/12/26 10:02:14;;;;;;;37.85;19.27;;;2.80;49.40;;;;;;5070645;28;20083;-65
2021/12/26 10:04:41;;;;;;;;;;;2.80;49.70;;;;;;5071394;28;20027;-66
2021/12/26 10:07:09;;;;;;;40.65;18.17;;;2.80;50.20;;;;;;5070228;28;19908;-66
2021/12/26 10:09:54;;;;;;;46.65;21.15;;;2.80;50.00;;;;;;5069775;28;20046;-67
2021/12/26 10:12:21;;;;;;;43.67;19.67;;;2.90;50.00;;;;;;5068558;28;20048;-65
2021/12/26 10:14:50;;;;;;;40.30;19.15;;;2.90;50.10;;;;;;5071157;28;20048;-63
2021/12/26 10:17:23;;;;;;;39.58;20.08;;;3.10;49.90;;;;;;5069658;28;20070;-69
2021/12/26 10:19:51;;;;;;;42.15;20.05;;;3.00;49.90;;;;;;5050754;28;20134;-67
2021/12/26 10:22:26;;;;;;;41.55;21.13;;;2.80;50.50;;;;;;5064920;28;20133;-68
2021/12/26 10:24:54;;;;;;;43.28;19.70;;;2.60;51.00;;;;;;5098608;28;20028;-67
2021/12/26 10:27:23;;;;;;;43.50;20.58;;;2.80;51.20;;;;;;5052169;28;20021;-67
2021/12/26 10:29:54;;;;;;;41.30;20.98;;;2.70;51.30;;;;;;5066582;28;20052;-72
2021/12/26 10:32:28;;;;;;;45.05;22.77;;;2.80;51.70;;;;;;5067679;28;20141;-72
2021/12/26 10:35:05;;;;;;;44.22;22.05;;;3.00;51.30;;;;;;5067722;28;20037;-71
2021/12/26 10:37:38;;;;;;;44.92;22.52;;;3.00;51.40;;;;;;5065851;28;20086;-75
2021/12/26 10:40:06;;;;;;;48.50;24.77;;;3.00;51.20;;;;;;5070183;28;20031;-73
2021/12/26 10:42:38;;;;;;;51.47;24.10;;;3.10;51.50;;;;;;5063999;28;20131;-73
2021/12/26 10:45:12;;;;;;;48.70;22.63;;;3.00;51.70;;;;;;5066607;28;20012;-76
2021/12/26 10:47:40;;;;;;;48.40;23.55;;;3.10;52.10;;;;;;5068354;28;20067;-74
2021/12/26 10:50:13;;;;;;;56.30;24.20;;;3.20;52.00;;;;;;5069850;28;20028;-69
2021/12/26 10:52:48;;;;;;;50.08;24.02;;;3.20;51.90;;;;;;5065719;28;20082;-67
2021/12/26 10:55:18;;;;;;;51.22;24.48;;;3.30;52.10;;;;;;5069673;28;20024;-66
2021/12/26 10:57:46;;;;;;;47.97;24.38;;;3.30;52.30;;;;;;5067457;28;20093;-66
2021/12/26 11:00:24;;;;;;;47.72;23.73;;;3.10;52.50;;;;;;5061290;28;20021;-69
2021/12/26 11:02:59;;;;;;;46.28;23.77;;;3.00;53.00;;;;;;5075987;28;20051;-65
2021/12/26 11:05:29;;;;;;;58.75;26.15;;;3.00;53.50;;;;;;5078906;28;20031;-66
2021/12/26 11:08:00;;;;;;;67.88;25.75;;;2.90;53.80;;;;;;5067555;28;20158;-71
2021/12/26 11:10:35;;;;;;;53.97;25.33;;;2.80;54.20;;;;;;5070345;28;20055;-72
2021/12/26 11:13:05;;;;;;;55.60;26.88;;;2.70;54.70;;;;;;5069087;28;20045;-68
2021/12/26 11:15:38;;;;;;;54.13;27.13;;;2.90;55.10;;;;;;5076385;28;20040;-66
2021/12/26 11:18:07;;;;;;;53.92;26.75;;;3.00;54.90;;;;;;5068515;28;20036;-67
2021/12/26 11:20:40;;;;;;;59.63;27.08;;;3.00;55.50;;;;;;5073525;28;20029;-65
2021/12/26 11:23:11;;;;;;;55.30;27.25;;;3.10;55.60;;;;;;5067820;28;20045;-65
2021/12/26 11:25:46;;;;;;;61.95;29.02;;;3.00;55.70;;;;;;5064633;28;20168;-68
2021/12/26 11:28:14;;;;;;;63.83;29.13;;;3.00;55.70;;;;;;5058312;28;20071;-65
2021/12/26 11:30:44;;;;;;;55.30;27.38;;;3.00;56.70;;;;;;5051960;28;20028;-64
2021/12/26 11:33:12;;;;;;;57.58;28.17;;;3.20;56.00;;;;;;5040108;28;20131;-68
2021/12/26 11:35:40;;;;;;;56.50;27.35;;;3.10;55.80;;;;;;5066731;28;20064;-68
2021/12/26 11:38:09;;;;;;;53.00;26.15;;;3.10;56.20;;;;;;5067640;28;20066;-64
2021/12/26 11:40:36;;;;;;;64.40;28.55;;;3.20;55.80;;;;;;5062554;28;20024;-68
2021/12/26 11:43:14;;;;;;;56.63;28.88;;;3.20;55.70;;;;;;5061217;28;20098;-68
2021/12/26 11:45:52;;;;;;;67.65;30.45;;;3.00;56.80;;;;;;5066573;28;20024;-67
2021/12/26 11:48:41;;;;;;;70.55;30.45;;;2.90;57.90;;;;;;5049508;28;20049;-65
2021/12/26 11:51:28;;;;;;;69.10;31.33;;;3.00;58.60;;;;;;5070856;28;20032;-65
2021/12/26 11:54:16;;;;;;;71.90;32.03;;;3.10;58.80;;;;;;5071429;28;20039;-66
2021/12/26 11:56:52;;;;;;;60.05;30.13;;;3.00;59.50;;;;;;5072438;28;20473;-65
2021/12/26 11:59:36;;;;;;;69.82;32.42;;;2.80;59.30;;;;;;5071185;28;20050;-64
2021/12/26 12:02:02;;;;;;;64.85;32.28;;;2.90;59.80;;;;;;5070334;28;20036;-67
2021/12/26 12:04:28;;;;;;;72.07;32.95;;;2.90;60.10;;;;;;5070385;28;20047;-68
2021/12/26 12:06:56;;;;;;;76.68;34.33;;;2.90;60.20;;;;;;5072732;28;20025;-67
2021/12/26 12:09:30;;;;;;;77.70;33.60;;;2.80;60.70;;;;;;5068591;28;20037;-67
2021/12/26 12:12:14;;;;;;;77.93;35.65;;;2.80;61.00;;;;;;5070708;28;20051;-67
2021/12/26 12:14:56;;;;;;;76.97;33.90;;;2.80;61.60;;;;;;5069506;28;20056;-66
2021/12/26 12:17:24;;;;;;;73.03;33.17;;;2.80;61.60;;;;;;5071728;28;20032;-67
2021/12/26 12:20:16;;;;;;;75.68;36.78;;;2.90;61.80;;;;;;5075152;28;20042;-69
2021/12/26 12:23:09;;;;;;;80.90;36.95;;;2.80;62.50;;;;;;5062315;28;20040;-63
2021/12/26 12:25:40;;;;;;;82.97;37.10;;;2.70;63.10;;;;;;5061825;28;20060;-67
2021/12/26 12:28:18;;;;;;;79.53;36.13;;;2.80;63.00;;;;;;5067621;28;20123;-69
2021/12/26 12:31:15;;;;;;;72.40;35.17;;;2.80;63.00;;;;;;5066788;28;20106;-67
2021/12/26 12:33:41;;;;;;;81.75;36.08;;;2.90;63.50;;;;;;5069963;28;20055;-67
2021/12/26 12:36:29;;;;;;;101.38;48.03;;;2.90;64.30;;;;;;5069989;28;20048;-68
2021/12/26 12:39:10;;;;;;;83.18;37.45;;;2.90;64.00;;;;;;5068092;28;20029;-68
2021/12/26 12:41:40;;;;;;;73.95;35.88;;;2.90;64.40;;;;;;5064795;28;20813;-67
2021/12/26 12:44:36;;;;;;;80.50;37.25;;;2.90;64.60;;;;;;5067312;28;20088;-67
2021/12/26 12:47:05;;;;;;;85.82;37.25;;;2.90;65.50;;;;;;5062001;28;20055;-66